sensor_id;sensor_type;location;lat;lon;timestamp;pressure;altitude;pressure_sealevel;temperature;humidity
31088;BME280;17745;55.914;37.554;2022-08-01T00:13:15;99443.72;;;20.77;44.32
31088;BME280;17745;55.914;37.554;2022-08-01T00:16:12;99437.06;;;20.75;44.38
31088;BME280;17745;55.914;37.554;2022-08-01T00:19:09;99438.00;;;20.70;44.39
31088;BME280;17745;55.914;37.554;2022-08-01T00:22:07;99435.28;;;20.70;44.47
31088;BME280;17745;55.914;37.554;2022-08-01T00:25:04;99436.25;;;20.65;44.58
31088;BME280;17745;55.914;37.554;2022-08-01T00:28:05;99428.63;;;20.50;44.87
31088;BME280;17745;55.914;37.554;2022-08-01T00:58:24;99425.47;;;19.67;46.28
31088;BME280;17745;55.914;37.554;2022-08-01T01:01:21;99428.56;;;19.60;46.50
31088;BME280;17745;55.914;37.554;2022-08-01T01:04:19;99430.09;;;19.52;46.52
31088;BME280;17745;55.914;37.554;2022-08-01T01:07:21;99433.41;;;19.49;46.63
31088;BME280;17745;55.914;37.554;2022-08-01T01:10:15;99428.66;;;19.46;46.84
31088;BME280;17745;55.914;37.554;2022-08-01T01:13:20;99430.03;;;19.43;47.03
31088;BME280;17745;55.914;37.554;2022-08-01T01:26:55;99413.03;;;19.25;47.60
31088;BME280;17745;55.914;37.554;2022-08-01T01:30:06;99413.66;;;19.22;47.68
31088;BME280;17745;55.914;37.554;2022-08-01T01:32:49;99416.16;;;19.19;47.81
31088;BME280;17745;55.914;37.554;2022-08-01T01:35:35;99424.56;;;19.26;47.40
31088;BME280;17745;55.914;37.554;2022-08-01T01:38:38;99410.28;;;19.17;47.69
31088;BME280;17745;55.914;37.554;2022-08-01T01:41:36;99411.19;;;19.12;47.91
31088;BME280;17745;55.914;37.554;2022-08-01T01:44:36;99412.91;;;19.08;47.92
31088;BME280;17745;55.914;37.554;2022-08-01T01:58:10;99408.94;;;19.05;48.42
31088;BME280;17745;55.914;37.554;2022-08-01T02:00:57;99410.34;;;19.03;48.39
31088;BME280;17745;55.914;37.554;2022-08-01T02:03:56;99410.16;;;18.99;48.31
31088;BME280;17745;55.914;37.554;2022-08-01T02:06:42;99407.97;;;19.01;48.38
31088;BME280;17745;55.914;37.554;2022-08-01T02:09:27;99411.12;;;19.03;48.42
31088;BME280;17745;55.914;37.554;2022-08-01T02:12:25;99408.44;;;19.03;48.54
31088;BME280;17745;55.914;37.554;2022-08-01T02:44:46;99411.63;;;19.51;48.50
31088;BME280;17745;55.914;37.554;2022-08-01T02:47:44;99418.03;;;19.64;48.39
31088;BME280;17745;55.914;37.554;2022-08-01T02:50:42;99412.69;;;19.73;48.25
31088;BME280;17745;55.914;37.554;2022-08-01T02:53:46;99409.44;;;19.84;48.14
31088;BME280;17745;55.914;37.554;2022-08-01T02:56:46;99411.56;;;19.96;48.00
31088;BME280;17745;55.914;37.554;2022-08-01T03:13:48;99414.53;;;20.44;47.40
31088;BME280;17745;55.914;37.554;2022-08-01T03:16:38;99415.97;;;20.50;47.40
31088;BME280;17745;55.914;37.554;2022-08-01T03:19:24;99416.13;;;20.54;47.40
31088;BME280;17745;55.914;37.554;2022-08-01T03:22:11;99424.69;;;20.65;47.31
31088;BME280;17745;55.914;37.554;2022-08-01T03:24:44;99419.03;;;20.75;47.18
31088;BME280;17745;55.914;37.554;2022-08-01T03:27:24;99419.38;;;20.82;47.02
31088;BME280;17745;55.914;37.554;2022-08-01T03:30:21;99414.47;;;20.93;46.90
31088;BME280;17745;55.914;37.554;2022-08-01T03:33:06;99411.94;;;21.06;46.66
31088;BME280;17745;55.914;37.554;2022-08-01T03:35:42;99410.19;;;21.10;46.66
31088;BME280;17745;55.914;37.554;2022-08-01T03:38:43;99412.41;;;21.17;46.63
31088;BME280;17745;55.914;37.554;2022-08-01T03:41:34;99404.44;;;21.29;46.53
31088;BME280;17745;55.914;37.554;2022-08-01T03:44:32;99406.19;;;21.42;46.33
31088;BME280;17745;55.914;37.554;2022-08-01T03:47:09;99397.91;;;21.56;46.18
31088;BME280;17745;55.914;37.554;2022-08-01T03:49:42;99401.06;;;21.67;46.04
31088;BME280;17745;55.914;37.554;2022-08-01T03:52:43;99408.34;;;21.76;45.96
31088;BME280;17745;55.914;37.554;2022-08-01T03:55:20;99401.66;;;21.82;45.92
31088;BME280;17745;55.914;37.554;2022-08-01T03:57:52;99416.41;;;21.84;45.88
31088;BME280;17745;55.914;37.554;2022-08-01T04:00:37;99406.66;;;21.92;45.76
31088;BME280;17745;55.914;37.554;2022-08-01T08:48:00;99369.56;;;30.45;25.62
31088;BME280;17745;55.914;37.554;2022-08-01T08:51:02;99364.91;;;30.60;25.90
31088;BME280;17745;55.914;37.554;2022-08-01T08:54:15;99372.06;;;30.87;25.46
31088;BME280;17745;55.914;37.554;2022-08-01T09:14:32;99358.09;;;31.50;23.84
31088;BME280;17745;55.914;37.554;2022-08-01T09:17:39;99351.84;;;31.78;23.31
31088;BME280;17745;55.914;37.554;2022-08-01T09:20:25;99355.38;;;31.79;23.41
31088;BME280;17745;55.914;37.554;2022-08-01T09:23:01;99354.97;;;31.88;23.35
31088;BME280;17745;55.914;37.554;2022-08-01T09:26:14;99358.06;;;31.97;23.12
31088;BME280;17745;55.914;37.554;2022-08-01T09:29:19;99352.16;;;32.06;23.30
31088;BME280;17745;55.914;37.554;2022-08-01T09:43:17;99343.59;;;31.97;23.02
31088;BME280;17745;55.914;37.554;2022-08-01T09:45:46;99342.44;;;31.98;23.27
31088;BME280;17745;55.914;37.554;2022-08-01T09:48:18;99347.09;;;32.01;23.11
31088;BME280;17745;55.914;37.554;2022-08-01T09:50:52;99345.13;;;32.05;23.10
31088;BME280;17745;55.914;37.554;2022-08-01T09:53:51;99337.31;;;32.07;22.99
31088;BME280;17745;55.914;37.554;2022-08-01T09:56:45;99338.44;;;32.20;22.66
31088;BME280;17745;55.914;37.554;2022-08-01T10:31:15;99323.53;;;32.29;22.29
31088;BME280;17745;55.914;37.554;2022-08-01T10:34:01;99330.50;;;32.51;21.79
31088;BME280;17745;55.914;37.554;2022-08-01T10:36:31;99319.09;;;32.64;21.69
31088;BME280;17745;55.914;37.554;2022-08-01T10:39:20;99321.44;;;32.62;21.66
31088;BME280;17745;55.914;37.554;2022-08-01T10:42:11;99320.66;;;32.65;21.88
31088;BME280;17745;55.914;37.554;2022-08-01T10:44:41;99329.56;;;32.80;21.65
31088;BME280;17745;55.914;37.554;2022-08-01T10:48:20;99322.94;;;32.77;21.54
31088;BME280;17745;55.914;37.554;2022-08-01T10:51:58;99324.22;;;32.55;21.23
31088;BME280;17745;55.914;37.554;2022-08-01T10:54:46;99314.47;;;32.46;21.20
31088;BME280;17745;55.914;37.554;2022-08-01T10:58:33;99308.19;;;32.49;21.26
31088;BME280;17745;55.914;37.554;2022-08-01T11:19:00;99295.75;;;36.55;17.95
31088;BME280;17745;55.914;37.554;2022-08-01T11:22:01;99298.47;;;38.26;16.77
31088;BME280;17745;55.914;37.554;2022-08-01T11:24:56;99292.00;;;39.20;16.04
31088;BME280;17745;55.914;37.554;2022-08-01T11:27:46;99282.72;;;39.36;15.42
31088;BME280;17745;55.914;37.554;2022-08-01T11:30:43;99281.66;;;38.08;15.65
31088;BME280;17745;55.914;37.554;2022-08-01T13:11:08;99239.28;;;37.98;15.64
31088;BME280;17745;55.914;37.554;2022-08-01T13:14:36;99237.41;;;36.03;16.92
31088;BME280;17745;55.914;37.554;2022-08-01T13:54:15;99233.25;;;32.11;20.44
31088;BME280;17745;55.914;37.554;2022-08-01T13:56:43;99227.84;;;33.93;19.35
31088;BME280;17745;55.914;37.554;2022-08-01T13:59:14;99223.91;;;35.88;17.90
31088;BME280;17745;55.914;37.554;2022-08-01T14:01:47;99227.31;;;37.75;16.74
31088;BME280;17745;55.914;37.554;2022-08-01T14:04:48;99224.44;;;38.95;15.58
31088;BME280;17745;55.914;37.554;2022-08-01T14:07:47;99227.03;;;37.99;16.08
31088;BME280;17745;55.914;37.554;2022-08-01T14:49:44;99223.53;;;36.60;17.71
31088;BME280;17745;55.914;37.554;2022-08-01T14:52:22;99213.81;;;35.41;18.38
31088;BME280;17745;55.914;37.554;2022-08-01T14:54:53;99210.66;;;34.44;18.99
31088;BME280;17745;55.914;37.554;2022-08-01T14:57:59;99218.44;;;33.59;19.61
31088;BME280;17745;55.914;37.554;2022-08-01T15:01:10;99216.34;;;32.87;20.21
31088;BME280;17745;55.914;37.554;2022-08-01T15:23:56;99206.38;;;34.70;19.02
31088;BME280;17745;55.914;37.554;2022-08-01T15:26:27;99204.84;;;33.79;19.62
31088;BME280;17745;55.914;37.554;2022-08-01T15:29:10;99211.38;;;33.20;20.24
31088;BME280;17745;55.914;37.554;2022-08-01T15:32:11;99206.19;;;32.80;20.65
31088;BME280;17745;55.914;37.554;2022-08-01T15:34:42;99203.81;;;32.82;20.83
31088;BME280;17745;55.914;37.554;2022-08-01T15:37:45;99194.47;;;33.25;20.77
31088;BME280;17745;55.914;37.554;2022-08-01T15:47:17;99198.25;;;33.00;20.93
31088;BME280;17745;55.914;37.554;2022-08-01T15:49:54;99203.34;;;32.98;21.02
31088;BME280;17745;55.914;37.554;2022-08-01T15:53:10;99195.06;;;33.05;21.04
31088;BME280;17745;55.914;37.554;2022-08-01T22:24:44;99300.16;;;20.99;43.89
31088;BME280;17745;55.914;37.554;2022-08-01T22:27:26;99294.31;;;20.97;44.05
31088;BME280;17745;55.914;37.554;2022-08-01T22:30:15;99306.50;;;20.95;43.96
31088;BME280;17745;55.914;37.554;2022-08-01T22:33:03;99301.44;;;20.93;44.10
31088;BME280;17745;55.914;37.554;2022-08-01T22:35:56;99302.84;;;20.91;44.17
31088;BME280;17745;55.914;37.554;2022-08-01T22:39:03;99304.78;;;20.90;44.20
31088;BME280;17745;55.914;37.554;2022-08-01T22:49:29;99305.91;;;20.80;44.63
31088;BME280;17745;55.914;37.554;2022-08-01T22:52:11;99305.41;;;20.78;44.61
31088;BME280;17745;55.914;37.554;2022-08-01T22:54:50;99307.16;;;20.74;44.58
31088;BME280;17745;55.914;37.554;2022-08-01T22:57:44;99305.41;;;20.69;44.71
31088;BME280;17745;55.914;37.554;2022-08-01T23:00:30;99297.50;;;20.64;44.91
31088;BME280;17745;55.914;37.554;2022-08-01T23:03:11;99301.59;;;20.53;45.03
31088;BME280;17745;55.914;37.554;2022-08-01T23:06:04;99309.03;;;20.47;45.32
31088;BME280;17745;55.914;37.554;2022-08-01T23:08:45;99304.94;;;20.41;45.49
31088;BME280;17745;55.914;37.554;2022-08-01T23:11:31;99298.91;;;20.35;45.45
31088;BME280;17745;55.914;37.554;2022-08-01T23:14:15;99290.53;;;20.28;45.69
31088;BME280;17745;55.914;37.554;2022-08-01T23:17:12;99284.50;;;20.22;45.83
31088;BME280;17745;55.914;37.554;2022-08-01T23:19:46;99280.06;;;20.18;45.93
31088;BME280;17745;55.914;37.554;2022-08-01T23:22:43;99283.72;;;20.13;46.03
31088;BME280;17745;55.914;37.554;2022-08-01T23:25:26;99273.56;;;20.10;46.22
31088;BME280;17745;55.914;37.554;2022-08-01T23:28:27;99282.28;;;20.07;46.11
31088;BME280;17745;55.914;37.554;2022-08-01T23:31:27;99272.16;;;20.04;46.13
31088;BME280;17745;55.914;37.554;2022-08-01T23:34:27;99272.16;;;20.04;46.17
31088;BME280;17745;55.914;37.554;2022-08-01T23:37:23;99267.88;;;20.03;46.22
31088;BME280;17745;55.914;37.554;2022-08-01T23:40:08;99273.59;;;20.01;46.25
31088;BME280;17745;55.914;37.554;2022-08-01T23:42:49;99278.63;;;20.03;46.47
31088;BME280;17745;55.914;37.554;2022-08-01T23:45:35;99281.97;;;19.99;46.36
31088;BME280;17745;55.914;37.554;2022-08-01T23:48:06;99275.78;;;19.99;46.39
31088;BME280;17745;55.914;37.554;2022-08-01T23:50:38;99281.47;;;19.97;46.45
31088;BME280;17745;55.914;37.554;2022-08-01T23:53:22;99281.78;;;19.96;46.53
31088;BME280;17745;55.914;37.554;2022-08-01T23:56:14;99278.63;;;19.94;46.60
31088;BME280;17745;55.914;37.554;2022-08-01T23:59:01;99276.75;;;19.94;46.77
